Time;durP1;ratioP1;P1;durP2;ratioP2;P2;SDS_P1;SDS_P2;PMS_P1;PMS_P2;Temp;Humidity;BMP_temperature;BMP_pressure;BME280_temperature;BME280_humidity;BME280_pressure;Samples;Min_cycle;Max_cycle;Signal;HPM_P1;HPM_P2
2023/03/28 00:01:47;;;;;;;6.50;3.70;;;22.90;40.50;;;;;;6174849;28;80927;-65
2023/03/28 00:04:48;;;;;;;6.15;3.78;;;22.80;40.40;;;;;;6151821;28;80578;-69
2023/03/28 00:07:49;;;;;;;7.22;4.28;;;22.80;40.40;;;;;;6149825;28;80434;-62
2023/03/28 00:10:50;;;;;;;7.85;4.13;;;22.80;40.60;;;;;;6153832;28;80512;-62
2023/03/28 00:13:52;;;;;;;6.38;3.80;;;22.80;40.70;;;;;;6154852;28;81553;-60
2023/03/28 00:16:53;;;;;;;5.60;3.67;;;22.80;40.40;;;;;;6155041;28;80524;-64
2023/03/28 00:19:53;;;;;;;6.55;3.70;;;22.80;40.50;;;;;;6154828;28;81063;-63
2023/03/28 00:22:54;;;;;;;7.53;3.97;;;22.80;40.60;;;;;;6154384;28;81997;-62
2023/03/28 00:25:55;;;;;;;6.35;4.07;;;22.80;40.60;;;;;;6165816;28;80471;-65
2023/03/28 00:28:55;;;;;;;6.20;4.22;;;22.80;40.60;;;;;;6137155;28;80587;-64
2023/03/28 00:31:56;;;;;;;5.93;3.83;;;22.80;40.50;;;;;;6154022;28;80548;-62
2023/03/28 00:34:56;;;;;;;6.18;3.92;;;22.80;40.50;;;;;;6154302;28;81714;-63
2023/03/28 00:37:57;;;;;;;7.32;3.88;;;22.80;40.50;;;;;;6155393;28;81899;-63
2023/03/28 00:40:58;;;;;;;6.30;3.97;;;22.80;40.20;;;;;;6154671;28;82231;-63
2023/03/28 00:43:58;;;;;;;6.60;3.70;;;22.80;40.40;;;;;;6154583;28;81762;-66
2023/03/28 00:46:59;;;;;;;8.20;4.55;;;22.80;40.20;;;;;;6167947;28;80402;-66
2023/03/28 00:49:59;;;;;;;8.82;4.72;;;22.80;40.10;;;;;;6136635;28;83195;-67
2023/03/28 00:53:00;;;;;;;7.38;4.10;;;22.80;40.20;;;;;;6142905;28;83501;-67
2023/03/28 00:56:01;;;;;;;8.13;5.40;;;22.80;40.00;;;;;;6158771;28;80144;-68
2023/03/28 00:59:01;;;;;;;9.90;5.65;;;22.80;39.90;;;;;;6162173;28;80830;-67
2023/03/28 01:02:02;;;;;;;8.68;5.05;;;22.70;39.80;;;;;;6143404;28;84419;-66
2023/03/28 01:05:02;;;;;;;10.30;5.32;;;22.70;39.60;;;;;;6137369;28;82396;-65
2023/03/28 01:08:03;;;;;;;11.60;6.18;;;22.70;39.70;;;;;;6136193;28;83235;-65
2023/03/28 01:11:04;;;;;;;10.00;5.25;;;22.70;39.60;;;;;;6136393;28;82435;-66
2023/03/28 01:14:06;;;;;;;10.80;5.93;;;22.70;39.40;;;;;;6135720;28;82864;-66
2023/03/28 01:17:07;;;;;;;11.00;5.78;;;22.70;39.40;;;;;;6142141;28;82106;-65
2023/03/28 01:20:09;;;;;;;10.00;6.38;;;22.70;39.50;;;;;;6134601;28;82766;-68
2023/03/28 01:23:09;;;;;;;10.85;5.70;;;22.70;39.40;;;;;;6150960;28;80627;-68
2023/03/28 01:26:10;;;;;;;10.40;5.75;;;22.70;39.20;;;;;;6136103;28;83691;-68
2023/03/28 01:29:11;;;;;;;14.63;6.30;;;22.70;39.10;;;;;;6141088;28;82358;-68
2023/03/28 01:32:12;;;;;;;11.05;6.18;;;22.70;39.00;;;;;;6135733;28;82972;-64
2023/03/28 01:35:31;;;;;;;11.05;6.80;;;22.70;39.20;;;;;;6123955;28;82548;-65
2023/03/28 01:38:32;;;;;;;9.82;6.30;;;22.70;39.30;;;;;;6135571;28;83521;-67
2023/03/28 01:41:32;;;;;;;12.70;7.22;;;22.70;39.10;;;;;;6136030;28;81420;-63
2023/03/28 01:44:33;;;;;;;9.25;6.28;;;22.70;39.10;;;;;;6152570;28;81467;-64
2023/03/28 01:47:34;;;;;;;10.70;6.35;;;22.70;39.00;;;;;;6135409;28;80699;-62
2023/03/28 01:50:35;;;;;;;12.05;6.63;;;22.60;38.70;;;;;;6135886;28;81483;-62
2023/03/28 01:53:35;;;;;;;11.73;6.28;;;22.60;38.60;;;;;;6135958;28;81670;-61
2023/03/28 01:56:36;;;;;;;12.80;6.43;;;22.60;38.70;;;;;;6096484;28;83248;-63
2023/03/28 01:59:37;;;;;;;12.10;6.75;;;22.70;39.10;;;;;;6130748;28;83237;-63
2023/03/28 02:02:56;;;;;;;11.77;7.13;;;22.60;39.40;;;;;;6105228;28;80594;-62
2023/03/28 02:06:01;;;;;;;12.52;7.05;;;22.60;38.80;;;;;;6086756;28;81801;-64
2023/03/28 02:09:01;;;;;;;12.48;7.45;;;22.60;38.80;;;;;;6101449;28;82778;-64
2023/03/28 02:12:21;;;;;;;11.20;7.07;;;22.60;38.60;;;;;;6127732;28;80547;-63
2023/03/28 02:15:41;;;;;;;11.90;7.03;;;22.60;38.50;;;;;;6109990;28;81391;-63
2023/03/28 02:18:54;;;;;;;13.57;7.00;;;22.60;38.40;;;;;;6105794;28;81683;-62
2023/03/28 02:22:04;;;;;;;14.77;7.93;;;22.60;38.60;;;;;;6126391;28;80278;-63
2023/03/28 02:25:27;;;;;;;15.27;8.20;;;22.60;38.50;;;;;;6125550;28;86005;-61
2023/03/28 02:28:31;;;;;;;11.57;6.75;;;22.60;38.30;;;;;;6127872;28;81349;-62
2023/03/28 02:31:44;;;;;;;15.15;7.60;;;22.70;38.40;;;;;;6108601;28;83354;-61
2023/03/28 02:34:46;;;;;;;14.13;8.13;;;22.70;38.20;;;;;;6110396;28;83197;-62
2023/03/28 02:37:47;;;;;;;13.85;6.78;;;22.60;38.10;;;;;;6118523;28;81752;-62
2023/03/28 02:40:48;;;;;;;13.43;7.85;;;22.60;38.10;;;;;;6128168;28;80726;-63
2023/03/28 02:43:48;;;;;;;14.05;8.15;;;22.60;37.90;;;;;;6127282;28;80742;-63
2023/03/28 02:46:49;;;;;;;13.30;7.47;;;22.60;37.90;;;;;;6109190;28;83097;-63
2023/03/28 02:49:49;;;;;;;13.07;7.22;;;22.60;37.70;;;;;;6109513;28;83366;-63
2023/03/28 02:52:50;;;;;;;13.75;7.13;;;22.60;37.60;;;;;;6127264;28;80769;-63
2023/03/28 02:55:53;;;;;;;11.48;7.30;;;22.60;37.60;;;;;;6126331;28;81684;-63
2023/03/28 02:59:12;;;;;;;13.13;7.82;;;22.60;38.30;;;;;;6130670;28;81626;-63
2023/03/28 03:02:15;;;;;;;13.95;7.30;;;22.60;37.50;;;;;;6143465;28;83475;-63
2023/03/28 03:05:16;;;;;;;14.70;8.00;;;22.60;37.60;;;;;;6133964;28;80274;-63
2023/03/28 03:08:17;;;;;;;13.88;7.20;;;22.50;37.50;;;;;;6134361;28;83376;-62
2023/03/28 03:11:18;;;;;;;14.70;7.88;;;22.60;37.60;;;;;;6117446;28;82280;-62
2023/03/28 03:14:21;;;;;;;14.43;7.75;;;22.60;37.60;;;;;;6134165;28;82929;-62
2023/03/28 03:17:22;;;;;;;12.35;7.22;;;22.60;38.10;;;;;;6133924;28;82815;-62
2023/03/28 03:20:24;;;;;;;16.60;8.52;;;22.60;36.90;;;;;;6127230;28;81216;-63
2023/03/28 03:23:25;;;;;;;16.25;8.63;;;22.60;36.60;;;;;;6156016;28;80724;-63
2023/03/28 03:26:29;;;;;;;16.45;8.38;;;22.60;36.10;;;;;;6131587;28;84131;-63
2023/03/28 03:29:35;;;;;;;14.88;8.15;;;22.70;36.40;;;;;;6151366;28;82994;-63
2023/03/28 03:32:37;;;;;;;15.48;8.38;;;22.80;35.90;;;;;;6138296;28;83272;-63
2023/03/28 03:35:40;;;;;;;14.15;8.13;;;22.80;35.80;;;;;;6146665;28;83263;-70
2023/03/28 03:38:41;;;;;;;15.35;8.73;;;22.80;35.90;;;;;;6140671;28;83016;-68
2023/03/28 03:41:42;;;;;;;14.05;8.35;;;22.90;35.70;;;;;;6140262;28;80536;-61
2023/03/28 03:44:43;;;;;;;15.20;8.45;;;22.90;35.90;;;;;;6154911;28;81200;-61
2023/03/28 03:47:45;;;;;;;13.90;8.48;;;22.90;35.60;;;;;;6128919;28;83036;-62
2023/03/28 03:50:46;;;;;;;15.13;7.93;;;23.00;35.40;;;;;;6124655;28;83289;-62
2023/03/28 03:53:49;;;;;;;17.17;8.68;;;23.00;35.20;;;;;;6115719;28;82491;-61
2023/03/28 03:56:52;;;;;;;15.57;8.40;;;23.00;36.00;;;;;;6110964;28;81240;-61
2023/03/28 03:59:53;;;;;;;14.98;8.38;;;23.00;35.10;;;;;;6123570;28;82830;-58
2023/03/28 04:02:54;;;;;;;14.43;7.85;;;23.10;34.90;;;;;;6134850;28;82365;-63
2023/03/28 04:05:58;;;;;;;14.25;8.07;;;23.10;35.00;;;;;;6133056;28;83139;-61
2023/03/28 04:08:58;;;;;;;16.48;7.95;;;23.10;35.20;;;;;;6152733;28;80851;-62
2023/03/28 04:12:23;;;;;;;15.07;7.78;;;23.20;35.40;;;;;;6131645;28;80958;-60
2023/03/28 04:15:27;;;;;;;17.25;8.88;;;23.20;35.30;;;;;;6135982;28;82825;-59
2023/03/28 04:18:49;;;;;;;17.35;8.40;;;23.20;34.90;;;;;;6151018;28;81346;-63
2023/03/28 04:21:55;;;;;;;11.98;7.65;;;23.20;34.60;;;;;;6134573;28;83220;-61
2023/03/28 04:24:57;;;;;;;13.87;8.03;;;23.20;34.30;;;;;;6150213;28;84463;-60
2023/03/28 04:28:12;;;;;;;17.42;7.68;;;23.10;34.40;;;;;;6132408;28;87575;-64
2023/03/28 04:31:28;;;;;;;14.30;7.72;;;23.10;34.40;;;;;;6131112;28;83505;-69
2023/03/28 04:34:45;;;;;;;16.10;8.32;;;23.10;34.80;;;;;;6151881;28;80608;-68
2023/03/28 04:37:50;;;;;;;;;;;23.10;35.20;;;;;;6133435;28;82923;-65
2023/03/28 04:40:52;;;;;;;14.55;7.68;;;23.10;35.30;;;;;;6129389;28;83515;-68
2023/03/28 04:44:13;;;;;;;11.80;7.15;;;23.10;35.10;;;;;;6148596;28;80152;-66
2023/03/28 04:47:19;;;;;;;14.98;7.35;;;23.10;35.30;;;;;;6132984;28;82255;-64
2023/03/28 04:50:20;;;;;;;15.30;7.25;;;23.20;35.40;;;;;;6125326;28;82787;-71
2023/03/28 04:53:21;;;;;;;13.45;7.00;;;23.20;35.30;;;;;;6136672;28;83564;-73
2023/03/28 04:56:50;;;;;;;16.25;7.03;;;23.20;35.20;;;;;;6065874;28;80432;-68
2023/03/28 04:59:58;;;;;;;15.75;7.00;;;23.20;35.10;;;;;;6119352;28;82945;-65
2023/03/28 05:03:17;;;;;;;13.20;7.07;;;23.20;35.00;;;;;;6119800;28;80586;-66
2023/03/28 05:06:29;;;;;;;12.48;6.57;;;23.20;35.00;;;;;;6117197;28;82099;-67
2023/03/28 05:09:30;;;;;;;14.80;6.93;;;23.20;34.60;;;;;;6115219;28;83684;-66
2023/03/28 05:12:30;;;;;;;13.63;7.35;;;23.20;34.70;;;;;;6115876;28;81923;-67
2023/03/28 05:15:36;;;;;;;14.32;6.53;;;23.20;34.70;;;;;;6090277;28;82973;-66
2023/03/28 05:18:51;;;;;;;12.27;6.45;;;23.10;34.60;;;;;;6123112;28;83325;-66
2023/03/28 05:21:58;;;;;;;11.55;6.10;;;23.20;34.60;;;;;;6123863;28;80522;-60
2023/03/28 05:24:58;;;;;;;9.63;5.43;;;23.20;34.50;;;;;;6133260;28;83600;-60
2023/03/28 05:27:59;;;;;;;11.60;7.05;;;23.10;34.40;;;;;;6131244;28;83100;-61
2023/03/28 05:30:59;;;;;;;11.40;5.97;;;23.10;34.40;;;;;;6133237;28;83193;-60
2023/03/28 05:34:01;;;;;;;11.02;5.63;;;23.10;34.50;;;;;;6127582;28;81902;-61
2023/03/28 05:37:10;;;;;;;7.65;5.22;;;23.10;34.40;;;;;;6122534;28;85626;-61
2023/03/28 05:40:19;;;;;;;11.98;5.32;;;23.00;34.40;;;;;;6136183;28;83662;-66
2023/03/28 05:43:19;;;;;;;9.93;5.00;;;23.00;34.50;;;;;;6135745;28;83149;-66
2023/03/28 05:46:20;;;;;;;10.88;5.38;;;23.00;34.50;;;;;;6123340;28;83526;-66
2023/03/28 05:49:22;;;;;;;10.48;5.82;;;22.90;34.80;;;;;;6136016;28;80832;-66
2023/03/28 05:52:24;;;;;;;9.10;4.75;;;22.90;34.80;;;;;;6134887;28;83261;-66
2023/03/28 05:55:25;;;;;;;10.23;5.07;;;22.90;34.80;;;;;;6131108;28;82922;-66
2023/03/28 05:58:26;;;;;;;9.90;4.90;;;22.90;34.70;;;;;;6136029;28;82630;-66
2023/03/28 06:01:27;;;;;;;9.25;4.57;;;22.90;34.30;;;;;;6146264;28;82151;-66
2023/03/28 06:04:31;;;;;;;8.80;5.28;;;22.90;34.50;;;;;;6152214;28;81172;-66
2023/03/28 06:07:32;;;;;;;8.02;4.72;;;22.90;34.70;;;;;;6149556;28;82888;-66
2023/03/28 06:10:33;;;;;;;8.55;4.85;;;22.80;34.30;;;;;;6151741;28;83464;-66
2023/03/28 06:13:53;;;;;;;9.05;4.50;;;22.80;34.80;;;;;;6136830;28;83372;-66
2023/03/28 06:16:53;;;;;;;6.85;4.05;;;22.80;35.10;;;;;;6150847;28;83576;-66
2023/03/28 06:19:54;;;;;;;5.32;3.70;;;22.70;35.20;;;;;;6151417;28;80801;-66
2023/03/28 06:22:55;;;;;;;9.57;4.38;;;22.70;35.40;;;;;;6149862;28;83699;-66
2023/03/28 06:25:55;;;;;;;8.93;3.80;;;22.60;35.30;;;;;;6151855;28;82251;-66
2023/03/28 06:28:57;;;;;;;6.95;4.15;;;22.60;35.30;;;;;;6150308;28;83645;-66
2023/03/28 06:32:08;;;;;;;7.05;4.22;;;22.60;35.40;;;;;;6137784;28;82188;-66
2023/03/28 06:35:08;;;;;;;5.75;3.45;;;22.60;35.10;;;;;;6150714;28;83360;-66
2023/03/28 06:38:09;;;;;;;6.35;3.50;;;22.70;35.20;;;;;;6150005;28;83732;-65
2023/03/28 06:41:11;;;;;;;5.97;3.30;;;22.70;35.10;;;;;;6151021;28;82430;-65
2023/03/28 06:44:12;;;;;;;5.55;3.22;;;22.70;35.00;;;;;;6152135;28;81275;-65
2023/03/28 06:47:41;;;;;;;6.15;3.45;;;22.70;35.00;;;;;;6150755;28;83990;-66
2023/03/28 06:50:48;;;;;;;7.25;4.10;;;22.80;35.10;;;;;;6150439;28;82181;-65
2023/03/28 06:53:49;;;;;;;8.00;3.83;;;22.80;35.00;;;;;;6151549;28;80318;-65
2023/03/28 06:56:54;;;;;;;5.73;3.50;;;22.80;34.90;;;;;;6138830;28;83990;-65
2023/03/28 06:59:55;;;;;;;6.50;3.63;;;22.80;35.10;;;;;;6134859;28;83566;-66
2023/03/28 07:03:02;;;;;;;6.13;3.65;;;22.80;35.20;;;;;;6114532;28;82442;-66
2023/03/28 07:06:02;;;;;;;6.93;3.85;;;22.80;35.40;;;;;;6110816;28;82680;-65
2023/03/28 07:09:03;;;;;;;5.28;3.38;;;22.80;35.70;;;;;;6103285;28;82281;-65
2023/03/28 07:12:13;;;;;;;4.60;3.00;;;22.80;35.90;;;;;;6076508;28;83721;-67
2023/03/28 07:15:13;;;;;;;4.35;3.28;;;22.80;36.00;;;;;;6100884;28;80542;-67
2023/03/28 07:18:14;;;;;;;6.97;3.65;;;22.70;36.20;;;;;;6083350;28;83388;-67
2023/03/28 07:21:15;;;;;;;7.22;3.45;;;22.80;36.40;;;;;;6094846;28;83320;-67
2023/03/28 07:24:15;;;;;;;7.05;3.60;;;22.80;36.30;;;;;;6095496;28;81863;-67
2023/03/28 07:27:28;;;;;;;6.05;3.30;;;22.80;36.30;;;;;;6077635;28;83861;-68
2023/03/28 07:30:28;;;;;;;9.38;3.28;;;22.80;36.40;;;;;;6104291;28;82466;-68
2023/03/28 07:33:29;;;;;;;6.47;3.70;;;22.90;36.40;;;;;;6101049;28;83232;-67
2023/03/28 07:36:29;;;;;;;7.32;3.75;;;22.90;36.20;;;;;;6095960;28;81559;-67
2023/03/28 07:39:38;;;;;;;6.65;3.63;;;23.00;36.30;;;;;;6087433;28;82708;-67
2023/03/28 07:42:43;;;;;;;7.63;3.70;;;23.00;35.90;;;;;;6092321;28;83370;-66
2023/03/28 07:45:46;;;;;;;4.85;3.00;;;23.00;35.60;;;;;;6103078;28;80504;-66
2023/03/28 07:48:47;;;;;;;5.82;3.55;;;23.00;35.50;;;;;;6085808;28;83520;-66
2023/03/28 07:51:48;;;;;;;5.10;3.30;;;23.00;35.40;;;;;;6086130;28;83451;-66
2023/03/28 07:54:49;;;;;;;7.22;3.00;;;23.00;35.30;;;;;;6102061;28;81787;-66
2023/03/28 07:57:50;;;;;;;5.32;3.40;;;23.00;35.20;;;;;;6084066;28;83630;-66
2023/03/28 08:01:05;;;;;;;4.80;3.33;;;23.10;35.20;;;;;;6100872;28;82478;-67
2023/03/28 08:04:08;;;;;;;6.60;3.45;;;23.10;35.10;;;;;;6126929;28;84961;-66
2023/03/28 08:07:35;;;;;;;;;;;23.10;34.90;;;;;;6148375;28;80836;-63
2023/03/28 08:10:36;;;;;;;4.07;2.67;;;23.10;34.90;;;;;;6157046;28;80354;-60
2023/03/28 08:13:37;;;;;;;4.95;2.63;;;23.10;35.10;;;;;;6136774;28;80735;-62
2023/03/28 08:16:43;;;;;;;5.28;2.88;;;23.10;34.80;;;;;;6136117;28;81971;-62
2023/03/28 08:19:44;;;;;;;4.88;2.47;;;23.20;34.70;;;;;;6135838;28;83205;-62
2023/03/28 08:23:06;;;;;;;5.13;2.50;;;23.20;34.80;;;;;;6148741;28;83234;-66
2023/03/28 08:26:13;;;;;;;5.63;2.55;;;23.20;34.50;;;;;;6150388;28;80277;-66
2023/03/28 08:29:17;;;;;;;4.55;2.33;;;23.20;35.10;;;;;;6133369;28;83404;-66
2023/03/28 08:32:18;;;;;;;5.43;2.50;;;23.30;34.40;;;;;;6149906;28;81716;-66
2023/03/28 08:35:19;;;;;;;4.47;2.40;;;23.30;34.40;;;;;;6107784;28;82831;-66
2023/03/28 08:38:23;;;;;;;3.85;2.30;;;23.30;34.30;;;;;;6123330;28;83138;-66
2023/03/28 08:41:23;;;;;;;4.65;2.63;;;23.30;34.30;;;;;;6140962;28;81662;-66
2023/03/28 08:44:32;;;;;;;3.20;2.30;;;23.30;34.30;;;;;;6134313;28;83144;-64
2023/03/28 08:47:33;;;;;;;3.42;2.28;;;23.30;34.40;;;;;;6127943;28;83279;-64
2023/03/28 08:50:34;;;;;;;4.18;2.25;;;23.30;34.20;;;;;;6130175;28;83062;-64
2023/03/28 08:53:36;;;;;;;7.88;3.17;;;23.20;34.20;;;;;;6155279;28;80532;-65
2023/03/28 08:56:37;;;;;;;5.22;2.58;;;23.30;34.20;;;;;;6153696;28;81504;-66
2023/03/28 08:59:37;;;;;;;3.50;2.53;;;23.20;34.20;;;;;;6153994;28;81089;-65
2023/03/28 09:02:38;;;;;;;4.07;2.25;;;23.30;34.20;;;;;;6124133;28;82421;-66
2023/03/28 09:05:39;;;;;;;3.50;2.05;;;23.30;34.30;;;;;;6123445;28;83374;-66
2023/03/28 09:08:43;;;;;;;4.10;2.22;;;23.20;34.20;;;;;;6123868;28;82866;-66
2023/03/28 09:11:44;;;;;;;2.28;1.70;;;23.30;34.30;;;;;;6114239;28;83277;-67
2023/03/28 09:14:45;;;;;;;2.80;2.00;;;23.30;34.30;;;;;;6141022;28;81608;-66
2023/03/28 09:17:46;;;;;;;3.30;2.00;;;23.30;34.20;;;;;;6153605;28;80294;-67
2023/03/28 09:20:46;;;;;;;2.75;1.80;;;23.30;34.20;;;;;;6117497;28;81817;-67
2023/03/28 09:23:58;;;;;;;2.38;2.00;;;23.20;34.00;;;;;;6128985;28;81405;-68
2023/03/28 09:27:17;;;;;;;2.55;1.70;;;23.20;33.80;;;;;;6110195;28;87378;-68
2023/03/28 09:30:17;;;;;;;2.92;1.92;;;23.20;34.00;;;;;;6145413;28;83702;-68
2023/03/28 09:33:20;;;;;;;2.08;1.60;;;23.20;34.30;;;;;;6150957;28;82400;-68
2023/03/28 09:36:20;;;;;;;2.40;1.60;;;23.20;34.00;;;;;;6117598;28;83084;-67
2023/03/28 09:39:22;;;;;;;1.58;1.45;;;23.10;33.70;;;;;;6119171;28;88941;-67
2023/03/28 09:42:23;;;;;;;2.60;1.60;;;23.10;33.90;;;;;;6120771;28;83563;-67
2023/03/28 09:45:23;;;;;;;3.25;1.63;;;23.10;33.70;;;;;;6130619;28;81788;-66
2023/03/28 09:48:33;;;;;;;3.65;1.90;;;23.10;33.90;;;;;;6118286;28;80993;-66
2023/03/28 09:51:38;;;;;;;1.88;1.60;;;23.10;33.80;;;;;;6115366;28;83697;-67
2023/03/28 09:54:38;;;;;;;3.67;1.95;;;23.10;33.90;;;;;;6136482;28;83361;-67
2023/03/28 09:57:39;;;;;;;2.47;1.48;;;23.10;33.50;;;;;;6152389;28;81579;-67
2023/03/28 10:00:47;;;;;;;2.38;1.60;;;23.20;33.30;;;;;;6150269;28;83037;-66
2023/03/28 10:04:13;;;;;;;;;;;23.20;33.50;;;;;;6105464;28;84931;-66
2023/03/28 10:07:34;;;;;;;2.60;1.48;;;23.10;33.20;;;;;;6133993;28;80397;-67
2023/03/28 10:10:57;;;;;;;1.52;1.10;;;23.20;33.20;;;;;;6153019;28;80671;-67
2023/03/28 10:13:57;;;;;;;2.30;1.55;;;23.10;33.00;;;;;;6135027;28;83330;-62
2023/03/28 10:16:59;;;;;;;2.55;1.67;;;23.10;33.20;;;;;;6139549;28;83547;-61
2023/03/28 10:20:07;;;;;;;3.80;1.77;;;23.10;33.40;;;;;;6125959;28;83282;-62
2023/03/28 10:23:11;;;;;;;1.45;1.20;;;23.10;33.10;;;;;;6096020;28;82768;-61
2023/03/28 10:26:11;;;;;;;2.13;1.42;;;23.10;33.20;;;;;;6117763;28;83203;-62
2023/03/28 10:29:12;;;;;;;2.15;1.48;;;23.10;33.10;;;;;;6107010;28;83353;-61
2023/03/28 10:32:13;;;;;;;2.08;1.35;;;23.10;33.00;;;;;;6128195;28;83154;-60
2023/03/28 10:35:17;;;;;;;3.10;1.52;;;23.10;33.10;;;;;;6134844;28;83537;-62
2023/03/28 10:38:22;;;;;;;5.28;1.67;;;23.10;32.90;;;;;;6134367;28;83216;-61
2023/03/28 10:41:41;;;;;;;2.00;1.38;;;23.10;33.10;;;;;;6151527;28;82241;-61
2023/03/28 10:44:50;;;;;;;2.13;1.45;;;23.10;33.10;;;;;;6134770;28;82217;-61
2023/03/28 10:47:51;;;;;;;1.58;1.48;;;23.10;33.10;;;;;;6134150;28;83273;-61
2023/03/28 10:50:51;;;;;;;2.38;1.58;;;23.10;33.10;;;;;;6152686;28;80734;-66
2023/03/28 10:53:52;;;;;;;2.17;1.60;;;23.10;32.90;;;;;;6132330;28;82627;-66
2023/03/28 10:56:57;;;;;;;2.88;1.63;;;23.10;32.90;;;;;;6134507;28;84793;-66
2023/03/28 11:00:01;;;;;;;2.22;1.50;;;23.10;33.60;;;;;;6134428;28;80449;-66
2023/03/28 11:03:03;;;;;;;2.08;1.20;;;23.10;33.40;;;;;;6134020;28;80378;-67
2023/03/28 11:06:08;;;;;;;2.50;1.30;;;23.00;33.30;;;;;;6133286;28;82485;-67
2023/03/28 11:09:08;;;;;;;2.83;1.63;;;23.10;33.50;;;;;;6116286;28;83502;-66
2023/03/28 11:12:24;;;;;;;2.50;1.33;;;23.10;33.50;;;;;;6138940;28;81613;-66
2023/03/28 11:15:25;;;;;;;2.47;1.35;;;23.20;33.20;;;;;;6115258;28;83116;-66
2023/03/28 11:18:31;;;;;;;2.10;1.30;;;23.20;32.90;;;;;;6110004;28;81113;-67
2023/03/28 11:21:34;;;;;;;1.92;1.55;;;23.30;32.70;;;;;;6108655;28;82790;-66
2023/03/28 11:24:35;;;;;;;1.80;1.23;;;23.30;31.80;;;;;;6109150;28;83238;-67
2023/03/28 11:27:48;;;;;;;1.65;1.40;;;23.30;31.70;;;;;;6109644;28;82608;-67
2023/03/28 11:30:57;;;;;;;1.63;1.13;;;23.30;31.80;;;;;;6115096;28;83478;-66
2023/03/28 11:34:07;;;;;;;1.38;1.10;;;23.30;31.80;;;;;;6134249;28;86045;-66
2023/03/28 11:37:08;;;;;;;1.55;1.25;;;23.30;31.70;;;;;;6133924;28;83426;-66
2023/03/28 11:40:10;;;;;;;1.70;1.40;;;23.30;31.50;;;;;;6134476;28;83881;-65
2023/03/28 11:43:31;;;;;;;1.92;1.65;;;23.30;31.30;;;;;;6149762;28;81273;-65
2023/03/28 11:46:32;;;;;;;2.65;1.75;;;23.30;31.30;;;;;;6132668;28;83574;-62
2023/03/28 11:49:33;;;;;;;1.92;1.52;;;23.30;31.10;;;;;;6134047;28;82110;-61
2023/03/28 11:52:34;;;;;;;1.20;1.10;;;23.40;31.00;;;;;;6131669;28;82793;-61
2023/03/28 11:55:36;;;;;;;3.00;1.33;;;23.40;30.70;;;;;;6133510;28;82919;-61
2023/03/28 11:58:43;;;;;;;1.85;1.30;;;23.40;30.60;;;;;;6133549;28;81756;-61
2023/03/28 12:01:45;;;;;;;3.17;1.80;;;23.50;30.70;;;;;;6139495;28;83739;-61
2023/03/28 12:04:45;;;;;;;2.30;1.63;;;23.40;30.70;;;;;;6134663;28;84572;-61
2023/03/28 12:07:46;;;;;;;1.65;1.35;;;23.50;30.80;;;;;;6140180;28;82275;-61
2023/03/28 12:10:59;;;;;;;1.85;1.23;;;23.60;30.70;;;;;;6153857;28;81800;-61
2023/03/28 12:14:12;;;;;;;1.67;1.23;;;23.60;30.70;;;;;;6136751;28;83321;-62
2023/03/28 12:17:19;;;;;;;2.03;1.20;;;23.60;30.70;;;;;;6136357;28;82206;-62
2023/03/28 12:20:20;;;;;;;1.85;1.30;;;23.60;30.70;;;;;;6137681;28;83829;-61
2023/03/28 12:23:22;;;;;;;1.30;1.20;;;23.60;30.80;;;;;;6154053;28;81459;-62
2023/03/28 12:26:45;;;;;;;6.15;1.48;;;23.60;30.70;;;;;;6153355;28;81263;-61
2023/03/28 12:29:48;;;;;;;1.50;1.40;;;23.60;30.70;;;;;;6137125;28;83249;-62
2023/03/28 12:32:52;;;;;;;1.30;1.20;;;23.60;30.80;;;;;;6136990;28;80715;-62
2023/03/28 12:35:56;;;;;;;2.95;1.45;;;23.60;30.70;;;;;;6137941;28;83066;-62
2023/03/28 12:38:57;;;;;;;1.65;1.25;;;23.60;30.70;;;;;;6154594;28;80479;-61
2023/03/28 12:42:04;;;;;;;1.65;1.38;;;23.60;30.80;;;;;;6138122;28;83776;-66
2023/03/28 12:45:05;;;;;;;2.13;1.40;;;23.60;30.70;;;;;;6136303;28;83356;-66
2023/03/28 12:48:06;;;;;;;3.05;1.80;;;23.60;30.90;;;;;;6137271;28;83474;-66
2023/03/28 12:51:08;;;;;;;2.20;1.40;;;23.60;30.90;;;;;;6149187;28;82942;-67
2023/03/28 12:54:09;;;;;;;1.45;1.23;;;23.60;30.80;;;;;;6152933;28;80734;-66
2023/03/28 12:57:10;;;;;;;1.70;1.50;;;23.70;30.80;;;;;;6121928;28;83357;-67
2023/03/28 13:00:20;;;;;;;3.95;1.30;;;23.70;30.50;;;;;;6132470;28;82555;-62
2023/03/28 13:03:52;;;;;;;2.47;1.23;;;23.60;30.50;;;;;;6153793;28;84207;-64
2023/03/28 13:07:02;;;;;;;1.58;1.20;;;23.60;30.60;;;;;;6152610;28;82722;-65
2023/03/28 13:10:03;;;;;;;4.70;1.52;;;23.60;30.60;;;;;;6154441;28;81399;-65
2023/03/28 13:13:03;;;;;;;1.75;1.40;;;23.60;30.60;;;;;;6155566;28;81685;-65
2023/03/28 13:16:04;;;;;;;2.25;1.73;;;23.60;30.50;;;;;;6153518;28;80506;-67
2023/03/28 13:19:05;;;;;;;2.80;1.65;;;23.60;30.90;;;;;;6149529;28;80659;-68
2023/03/28 13:22:06;;;;;;;9.52;1.45;;;23.60;30.90;;;;;;6153627;28;90214;-70
2023/03/28 13:25:06;;;;;;;3.53;1.80;;;23.60;31.10;;;;;;6153055;28;82806;-65
2023/03/28 13:28:07;;;;;;;3.15;1.58;;;23.60;31.50;;;;;;6151598;28;80354;-66
2023/03/28 13:31:07;;;;;;;4.35;1.40;;;23.60;31.70;;;;;;6153465;28;87751;-67
2023/03/28 13:34:08;;;;;;;3.60;1.13;;;23.60;31.80;;;;;;6151057;28;80280;-71
2023/03/28 13:37:08;;;;;;;4.97;1.88;;;23.60;31.80;;;;;;6153284;28;80225;-61
2023/03/28 13:40:10;;;;;;;2.38;1.35;;;23.70;32.10;;;;;;6152681;28;82878;-63
2023/03/28 13:43:11;;;;;;;7.68;1.85;;;23.80;32.00;;;;;;6152071;28;80813;-61
2023/03/28 13:46:11;;;;;;;3.53;1.40;;;23.80;32.20;;;;;;6149985;28;81646;-61
2023/03/28 13:49:12;;;;;;;3.22;1.40;;;23.90;32.20;;;;;;6151323;28;81425;-60
2023/03/28 13:52:12;;;;;;;2.67;1.30;;;23.90;32.20;;;;;;6151913;28;80655;-61
2023/03/28 13:55:13;;;;;;;3.92;1.60;;;23.80;32.10;;;;;;6151960;28;81098;-72
2023/03/28 13:58:13;;;;;;;6.20;1.40;;;23.80;32.10;;;;;;6142328;28;80655;-66
2023/03/28 14:01:14;;;;;;;3.05;1.63;;;23.80;32.20;;;;;;6155555;28;80607;-68
2023/03/28 14:04:15;;;;;;;2.30;1.20;;;23.80;32.50;;;;;;6152555;28;80405;-71
2023/03/28 14:07:15;;;;;;;7.93;1.85;;;23.80;32.40;;;;;;6153226;28;80398;-69
2023/03/28 14:10:16;;;;;;;2.25;1.23;;;23.70;32.70;;;;;;6135050;28;84811;-67
2023/03/28 14:13:17;;;;;;;5.38;1.20;;;23.70;33.00;;;;;;6142730;28;83389;-64
2023/03/28 14:16:17;;;;;;;2.35;1.52;;;23.70;33.30;;;;;;6140013;28;83051;-63
2023/03/28 14:19:18;;;;;;;4.25;1.55;;;23.60;33.50;;;;;;6143804;28;80403;-67
2023/03/28 14:22:19;;;;;;;3.55;1.35;;;23.60;33.90;;;;;;6145087;28;80251;-66
2023/03/28 14:25:20;;;;;;;2.50;1.00;;;23.60;34.00;;;;;;6128301;28;85228;-68
2023/03/28 14:28:20;;;;;;;1.33;1.05;;;23.70;34.10;;;;;;6140097;28;83417;-66
2023/03/28 14:31:21;;;;;;;3.85;1.30;;;23.60;34.20;;;;;;6142708;28;84083;-69
2023/03/28 14:34:24;;;;;;;1.90;1.00;;;23.70;34.50;;;;;;6149259;28;80434;-71
2023/03/28 14:37:28;;;;;;;1.13;1.00;;;23.70;34.70;;;;;;6148251;28;81903;-64
2023/03/28 14:40:29;;;;;;;3.58;1.00;;;23.80;35.20;;;;;;6149695;28;80092;-63
2023/03/28 14:43:30;;;;;;;2.00;1.30;;;23.80;35.50;;;;;;6148674;28;81693;-67
2023/03/28 14:46:30;;;;;;;2.25;1.08;;;23.90;35.70;;;;;;6147216;28;80609;-70
2023/03/28 14:49:31;;;;;;;1.33;0.90;;;24.00;35.70;;;;;;6149285;28;80794;-76
2023/03/28 14:52:35;;;;;;;1.70;1.20;;;24.00;35.50;;;;;;6147158;28;81221;-72
2023/03/28 14:55:36;;;;;;;4.32;1.35;;;24.00;35.90;;;;;;6145485;28;84814;-75
2023/03/28 14:58:37;;;;;;;2.38;1.10;;;24.00;36.40;;;;;;6148940;28;80769;-68
2023/03/28 15:01:37;;;;;;;1.15;1.00;;;24.00;36.20;;;;;;6145107;28;81778;-73
2023/03/28 15:04:38;;;;;;;1.63;1.10;;;24.00;36.40;;;;;;6145434;28;83956;-70
2023/03/28 15:07:38;;;;;;;3.75;1.30;;;24.00;36.10;;;;;;6145918;28;85262;-67
2023/03/28 15:10:39;;;;;;;1.63;1.17;;;24.10;36.40;;;;;;6145101;28;81767;-67
2023/03/28 15:13:39;;;;;;;1.60;1.23;;;24.10;36.20;;;;;;6139932;28;80377;-68
2023/03/28 15:16:41;;;;;;;1.80;1.35;;;24.10;36.50;;;;;;6129519;28;85023;-66
2023/03/28 15:19:41;;;;;;;2.50;1.25;;;24.10;36.80;;;;;;6146848;28;82022;-69
2023/03/28 15:22:42;;;;;;;7.28;1.30;;;24.10;36.30;;;;;;6078407;28;85435;-68
2023/03/28 15:25:42;;;;;;;6.35;1.60;;;24.10;36.10;;;;;;6142236;28;81163;-62
2023/03/28 15:28:43;;;;;;;1.48;1.20;;;24.00;35.80;;;;;;6144304;28;82296;-60
2023/03/28 15:31:43;;;;;;;5.47;1.40;;;24.00;36.30;;;;;;6148887;28;80518;-60
2023/03/28 15:34:44;;;;;;;2.95;1.50;;;24.00;35.40;;;;;;6148570;28;81035;-60
2023/03/28 15:37:45;;;;;;;2.60;1.42;;;24.00;35.30;;;;;;6147854;28;80825;-61
2023/03/28 15:40:45;;;;;;;1.95;1.13;;;23.90;35.00;;;;;;6150873;28;81271;-61
2023/03/28 15:43:46;;;;;;;3.33;1.50;;;23.90;35.40;;;;;;6151924;28;81335;-72
2023/03/28 15:46:46;;;;;;;2.63;1.60;;;23.90;35.30;;;;;;6150954;28;82093;-64
2023/03/28 15:49:48;;;;;;;3.60;1.50;;;23.90;35.20;;;;;;6152310;28;81026;-68
2023/03/28 15:52:48;;;;;;;2.28;1.38;;;23.90;35.60;;;;;;6150519;28;80320;-69
2023/03/28 15:55:49;;;;;;;2.67;1.77;;;23.90;35.60;;;;;;6148147;28;80795;-66